createdAt,value
2022-10-20T00:00:30.246Z,67.37
2022-10-20T00:05:32.324Z,67.05
2022-10-20T00:10:34.302Z,67.25
2022-10-20T00:15:36.349Z,67.10
2022-10-20T00:20:40.569Z,67.11
2022-10-20T00:25:42.513Z,67.20
2022-10-20T00:30:44.418Z,68.57
2022-10-20T00:35:46.357Z,67.67
2022-10-20T00:40:54.896Z,67.13
2022-10-20T00:45:58.539Z,66.69
2022-10-20T00:51:00.496Z,66.35
2022-10-20T00:56:02.881Z,67.33
2022-10-20T01:01:05.200Z,67.39
2022-10-20T01:06:08.341Z,67.70
2022-10-20T01:11:10.339Z,67.44
2022-10-20T01:16:46.741Z,68.35
2022-10-20T01:22:27.127Z,67.75
2022-10-20T01:27:49.309Z,68.23
2022-10-20T01:32:56.799Z,67.87
2022-10-20T01:38:28.724Z,67.62
2022-10-20T01:43:35.744Z,67.72
2022-10-20T01:48:40.400Z,67.88
2022-10-20T01:53:42.377Z,67.33
2022-10-20T01:58:53.788Z,67.89
2022-10-20T02:04:01.593Z,67.67
2022-10-20T02:09:13.161Z,67.78
2022-10-20T02:14:18.452Z,67.46
2022-10-20T02:19:26.459Z,67.68
2022-10-20T02:24:32.139Z,68.13
2022-10-20T02:29:40.507Z,67.96
2022-10-20T02:34:43.042Z,67.75
2022-10-20T02:39:45.007Z,68.43
2022-10-20T02:44:47.007Z,68.04
2022-10-20T02:49:49.250Z,68.30
2022-10-20T02:54:51.128Z,67.78
2022-10-20T02:59:53.302Z,67.87
2022-10-20T03:04:55.464Z,67.70
2022-10-20T03:09:57.513Z,67.44
2022-10-20T03:14:59.404Z,66.66
2022-10-20T03:20:01.333Z,68.84
2022-10-20T03:25:04.004Z,67.75
2022-10-20T03:30:06.543Z,68.01
2022-10-20T03:35:08.854Z,67.50
2022-10-20T03:40:10.939Z,67.62
2022-10-20T03:45:15.027Z,67.61
2022-10-20T03:50:19.816Z,67.20
2022-10-20T03:55:21.851Z,66.94
2022-10-20T04:00:24.045Z,66.60
2022-10-20T04:05:26.323Z,66.81
2022-10-20T04:10:28.332Z,67.07
2022-10-20T04:15:30.225Z,66.52
2022-10-20T04:20:32.215Z,66.53
2022-10-20T04:25:34.340Z,66.56
2022-10-20T04:30:38.951Z,66.36
2022-10-20T04:35:41.167Z,66.17
2022-10-20T04:40:43.306Z,66.47
2022-10-20T04:45:45.164Z,66.33
2022-10-20T04:50:47.101Z,66.25
2022-10-20T04:55:54.965Z,66.05
2022-10-20T05:01:08.688Z,65.48
2022-10-20T05:06:21.265Z,65.69
2022-10-20T05:11:25.136Z,65.80
2022-10-20T05:16:27.524Z,64.87
2022-10-20T05:21:30.948Z,65.27
2022-10-20T05:26:37.091Z,65.36
2022-10-20T05:31:42.225Z,64.95
2022-10-20T05:36:50.386Z,65.41
2022-10-20T05:41:58.350Z,65.62
2022-10-20T05:47:00.277Z,66.05
2022-10-20T05:52:08.510Z,65.51
2022-10-20T05:57:16.655Z,66.04
2022-10-20T06:02:18.681Z,66.21
2022-10-20T06:07:20.582Z,66.42
2022-10-20T06:12:22.506Z,65.77
2022-10-20T06:17:24.386Z,64.88
2022-10-20T06:22:26.489Z,63.50
2022-10-20T06:27:28.579Z,61.49
2022-10-20T06:32:30.786Z,60.52
2022-10-20T06:37:33.882Z,60.23
2022-10-20T06:42:36.014Z,59.33
2022-10-20T06:47:38.408Z,57.11
2022-10-20T06:52:40.520Z,55.97
2022-10-20T06:57:42.584Z,55.00
2022-10-20T07:02:44.743Z,55.39
2022-10-20T07:07:46.712Z,53.84
2022-10-20T07:12:48.609Z,53.83
2022-10-20T07:17:50.541Z,49.64
2022-10-20T07:22:52.439Z,50.32
2022-10-20T07:27:54.742Z,48.43
2022-10-20T07:32:56.796Z,48.42
2022-10-20T07:37:58.778Z,47.07
2022-10-20T07:43:00.681Z,43.48
2022-10-20T07:48:04.473Z,41.35
2022-10-20T07:53:06.499Z,42.41
2022-10-20T07:58:08.492Z,41.65
2022-10-20T08:03:10.513Z,39.69
2022-10-20T08:08:12.709Z,39.30
2022-10-20T08:13:15.002Z,38.33
2022-10-20T08:18:17.355Z,34.37
2022-10-20T08:23:19.470Z,31.32
2022-10-20T08:28:24.719Z,30.51
2022-10-20T08:33:28.297Z,28.10
2022-10-20T08:38:30.316Z,26.28
2022-10-20T08:43:36.557Z,26.62
2022-10-20T08:48:39.101Z,26.81
2022-10-20T08:53:41.030Z,25.90
2022-10-20T08:58:44.781Z,23.86
2022-10-20T09:03:48.447Z,22.30
2022-10-20T09:08:51.780Z,24.94
2022-10-20T09:13:54.712Z,21.98
2022-10-20T09:18:58.819Z,25.11
2022-10-20T09:24:10.006Z,23.96
2022-10-20T09:29:35.744Z,28.26
2022-10-20T09:34:38.036Z,26.61
2022-10-20T09:39:45.818Z,26.15
2022-10-20T09:44:58.462Z,28.16
2022-10-20T09:50:06.764Z,35.36
2022-10-20T09:55:30.704Z,37.79
2022-10-20T10:00:37.587Z,40.38
2022-10-20T10:05:39.789Z,42.19
2022-10-20T10:10:45.258Z,47.73
2022-10-20T10:15:47.413Z,44.55
2022-10-20T10:21:02.582Z,39.83
2022-10-20T10:26:34.665Z,37.58
2022-10-20T10:31:50.095Z,35.44
2022-10-20T10:36:52.209Z,35.35
2022-10-20T10:42:32.354Z,31.53
2022-10-20T10:47:46.774Z,24.07
2022-10-20T10:53:34.651Z,13.51
2022-10-20T10:59:02.025Z,7.24
2022-10-20T11:04:31.852Z,4.93
2022-10-20T11:10:01.144Z,1.84
2022-10-20T11:15:39.396Z,-2.84
2022-10-20T11:20:59.872Z,-2.96
2022-10-20T11:26:28.203Z,-1.43
2022-10-20T11:31:54.747Z,-5.08
2022-10-20T11:37:19.846Z,-4.82
2022-10-20T11:43:00.193Z,-5.96
2022-10-20T11:48:12.289Z,-3.10
2022-10-20T11:53:35.452Z,-3.83
2022-10-20T11:58:58.549Z,115.92
2022-10-20T12:04:12.521Z,-5.96
2022-10-20T12:09:33.069Z,116.36
2022-10-20T12:14:46.465Z,116.40
2022-10-20T12:19:52.478Z,117.44
2022-10-20T12:24:54.564Z,112.64
2022-10-20T12:30:02.589Z,110.77
2022-10-20T12:35:10.685Z,107.71
2022-10-20T12:40:12.760Z,109.03
2022-10-20T12:45:20.790Z,110.55
2022-10-20T12:50:39.429Z,106.41
2022-10-20T12:55:49.795Z,104.18
2022-10-20T13:00:58.635Z,104.22
2022-10-20T13:06:01.734Z,104.67
2022-10-20T13:11:37.839Z,101.99
2022-10-20T13:16:46.773Z,102.83
2022-10-20T13:21:50.989Z,101.86
2022-10-20T13:26:57.517Z,101.92
2022-10-20T13:32:21.268Z,103.31
2022-10-20T13:37:56.325Z,102.47
2022-10-20T13:43:31.354Z,102.00
2022-10-20T13:48:45.719Z,102.54
2022-10-20T13:53:51.256Z,106.69
2022-10-20T13:59:07.145Z,108.36
2022-10-20T14:04:37.432Z,109.75
2022-10-20T14:09:45.292Z,109.24
2022-10-20T14:14:49.844Z,110.33
2022-10-20T14:20:07.913Z,111.74
2022-10-20T14:25:10.804Z,111.77
2022-10-20T14:30:18.062Z,112.89
2022-10-20T14:35:28.904Z,112.48
2022-10-20T14:40:36.364Z,114.18
2022-10-20T14:45:38.742Z,113.95
2022-10-20T14:50:41.127Z,113.97
2022-10-20T14:55:43.185Z,113.63
2022-10-20T15:00:45.321Z,114.19
2022-10-20T15:05:52.523Z,115.91
2022-10-20T15:10:55.159Z,116.62
2022-10-20T15:16:02.580Z,116.97
2022-10-20T15:21:05.061Z,118.72
2022-10-20T15:26:14.329Z,118.99
2022-10-20T15:31:20.828Z,-4.92
2022-10-20T15:36:33.513Z,-3.69
2022-10-20T15:41:36.839Z,-2.22
2022-10-20T15:46:39.223Z,-2.06
2022-10-20T15:51:44.180Z,-1.65
2022-10-20T15:56:46.192Z,-1.28
2022-10-20T16:01:48.372Z,-0.96
2022-10-20T16:06:57.759Z,0.76
2022-10-20T16:12:01.273Z,2.60
2022-10-20T16:17:03.353Z,4.60
2022-10-20T16:22:05.315Z,5.99
2022-10-20T16:27:07.572Z,5.53
2022-10-20T16:32:09.606Z,7.85
2022-10-20T16:37:11.791Z,9.15
2022-10-20T16:42:14.038Z,9.06
2022-10-20T16:47:16.278Z,7.14
2022-10-20T16:52:18.583Z,12.15
2022-10-20T16:57:20.724Z,14.71
2022-10-20T17:02:23.329Z,16.59
2022-10-20T17:07:25.389Z,18.24
2022-10-20T17:12:27.559Z,20.66
2022-10-20T17:17:29.621Z,21.95
2022-10-20T17:22:32.650Z,22.81
2022-10-20T17:27:35.105Z,26.89
2022-10-20T17:32:37.631Z,27.68
2022-10-20T17:37:40.080Z,28.56
2022-10-20T17:42:42.152Z,30.00
2022-10-20T17:47:44.580Z,31.07
2022-10-20T17:52:46.858Z,32.02
2022-10-20T17:57:50.084Z,33.60
2022-10-20T18:02:52.214Z,34.21
2022-10-20T18:07:54.508Z,35.26
2022-10-20T18:12:56.572Z,35.79
2022-10-20T18:17:58.660Z,36.30
2022-10-20T18:23:00.904Z,36.11
2022-10-20T18:28:02.957Z,37.21
2022-10-20T18:33:04.945Z,36.33
2022-10-20T18:38:07.058Z,36.21
2022-10-20T18:43:09.072Z,36.14
2022-10-20T18:48:11.242Z,36.83
2022-10-20T18:53:14.371Z,36.80
2022-10-20T18:58:16.381Z,36.95
2022-10-20T19:03:18.576Z,37.52
2022-10-20T19:08:20.555Z,37.39
2022-10-20T19:13:25.959Z,38.14
2022-10-20T19:18:29.648Z,37.11
2022-10-20T19:23:32.301Z,36.95
2022-10-20T19:28:37.675Z,38.15
2022-10-20T19:33:40.308Z,40.65
2022-10-20T19:38:43.103Z,44.07
2022-10-20T19:43:45.401Z,43.63
2022-10-20T19:48:48.358Z,44.67
2022-10-20T19:53:50.399Z,46.04
2022-10-20T19:58:53.129Z,46.51
2022-10-20T20:03:57.592Z,50.37
2022-10-20T20:09:02.175Z,51.33
2022-10-20T20:14:16.708Z,52.07
2022-10-20T20:19:18.709Z,58.87
2022-10-20T20:24:20.885Z,55.65
2022-10-20T20:29:22.863Z,55.40
2022-10-20T20:34:24.902Z,55.98
2022-10-20T20:39:27.173Z,57.82
2022-10-20T20:44:29.379Z,59.23
2022-10-20T20:49:31.546Z,61.50
2022-10-20T20:54:33.690Z,61.93
2022-10-20T20:59:35.621Z,63.44
2022-10-20T21:04:37.552Z,65.00
2022-10-20T21:09:39.548Z,65.10
2022-10-20T21:14:41.651Z,63.08
2022-10-20T21:19:43.652Z,61.79
2022-10-20T21:24:45.602Z,60.17
2022-10-20T21:29:48.514Z,59.70
2022-10-20T21:34:50.420Z,58.91
2022-10-20T21:39:52.440Z,58.16
2022-10-20T21:44:54.381Z,59.28
2022-10-20T21:49:56.584Z,59.12
2022-10-20T21:54:58.500Z,58.32
2022-10-20T22:00:00.570Z,57.80
2022-10-20T22:05:02.794Z,56.60
2022-10-20T22:10:05.364Z,58.01
2022-10-20T22:15:07.811Z,58.13
2022-10-20T22:20:10.420Z,57.84
2022-10-20T22:25:12.543Z,58.48
2022-10-20T22:30:14.557Z,58.69
2022-10-20T22:35:16.668Z,58.40
2022-10-20T22:40:18.797Z,58.58
2022-10-20T22:45:20.814Z,58.74
2022-10-20T22:50:23.132Z,58.92
2022-10-20T22:55:25.075Z,59.05
2022-10-20T23:00:27.106Z,59.59
2022-10-20T23:05:29.057Z,58.91
2022-10-20T23:10:31.139Z,59.15
2022-10-20T23:15:33.117Z,59.14
2022-10-20T23:20:35.110Z,60.07
2022-10-20T23:25:40.580Z,58.97
2022-10-20T23:30:42.598Z,59.35
2022-10-20T23:35:47.099Z,59.71
2022-10-20T23:40:49.253Z,60.02
2022-10-20T23:45:51.301Z,59.59
2022-10-20T23:50:53.974Z,59.16
2022-10-20T23:55:56.007Z,58.59
